Hawk, Alabama
Current Conditions -  °F | °C
As of 12:35 PM on Tuesday 27 Jan 2015 (Local Time) from KCTJ Reporting Station
Overcast Overcast  
Wind Chill:   Ceiling: 4300
Heat Index:   Visibility: 10mi
Dew Point:   Wind: 16mph
Humidity: 54%   Direction: 350°N
Pressure: 29.99"   Gusts: 23mph
Location:  33.3575°N, 85.3468°W
Report Text: KCTJ 271835Z AUTO 35014G20KT 10SM BKN043 OVC049 09/00 A2999 RMK AO2
Loading
Personal Weather Stations






























Interactive Weather Map New forecast layout! Learn more

10-Day Weather Forecast

Advertisements
Track Severe Weather on mobile